Time;durP1;ratioP1;P1;durP2;ratioP2;P2;SDS_P1;SDS_P2;PMS_P1;PMS_P2;Temp;Humidity;BMP_temperature;BMP_pressure;BME280_temperature;BME280_humidity;BME280_pressure;Samples;Min_cycle;Max_cycle;Signal;HPM_P1;HPM_P2
2021/12/26 00:01:22;;;;;;;27.50;11.40;;;;;;;;;;2320308;58;21080;-80
2021/12/26 00:03:50;;;;;;;29.12;12.68;;;;;;;;;;2561778;54;21194;-78
2021/12/26 00:06:20;;;;;;;22.73;12.35;;;;;;;;;;2320767;58;21052;-79
2021/12/26 00:08:47;;;;;;;19.50;10.32;;;;;;;;;;2320422;58;21123;-80
2021/12/26 00:11:14;;;;;;;26.48;10.88;;;;;;;;;;2561605;54;21052;-79
2021/12/26 00:13:42;;;;;;;22.00;11.07;;;;;;;;;;2561956;54;21064;-78
2021/12/26 00:16:10;;;;;;;23.52;11.48;;;;;;;;;;2320510;58;21064;-80
2021/12/26 00:18:37;;;;;;;18.65;10.77;;;;;;;;;;2320890;58;21068;-79
2021/12/26 00:21:04;;;;;;;26.40;11.27;;;;;;;;;;2320405;58;21535;-80
2021/12/26 00:23:31;;;;;;;20.12;10.52;;;;;;;;;;2320832;58;21063;-79
2021/12/26 00:25:58;;;;;;;25.58;11.85;;;;;;;;;;2561714;54;21049;-79
2021/12/26 00:28:26;;;;;;;22.30;11.75;;;;;;;;;;2561566;53;21064;-78
2021/12/26 00:30:54;;;;;;;22.92;11.77;;;;;;;;;;2561497;54;21040;-79
2021/12/26 00:33:31;;;;;;;27.48;12.00;;;;;;;;;;2317327;58;21598;-79
2021/12/26 00:35:58;;;;;;;25.92;12.00;;;;;;;;;;2320746;58;21044;-79
2021/12/26 00:38:25;;;;;;;34.50;14.63;;;;;;;;;;2320745;58;21120;-78
2021/12/26 00:40:52;;;;;;;30.27;13.30;;;;;;;;;;2320749;58;21119;-80
2021/12/26 00:43:19;;;;;;;27.55;13.23;;;;;;;;;;2320704;58;21064;-78
2021/12/26 00:45:46;;;;;;;27.08;13.35;;;;;;;;;;2561758;54;21232;-79
2021/12/26 00:48:13;;;;;;;28.15;13.77;;;;;;;;;;2320396;58;21566;-78
2021/12/26 00:50:41;;;;;;;26.70;13.13;;;;;;;;;;2561578;54;21060;-78
2021/12/26 00:53:08;;;;;;;25.77;13.88;;;;;;;;;;2561765;54;21113;-78
2021/12/26 00:55:36;;;;;;;24.10;12.98;;;;;;;;;;2320600;58;21059;-79
2021/12/26 00:58:03;;;;;;;21.65;11.38;;;;;;;;;;2320735;58;21048;-78
2021/12/26 01:00:33;;;;;;;20.33;11.20;;;;;;;;;;2561129;54;21060;-78
2021/12/26 01:03:01;;;;;;;27.87;13.20;;;;;;;;;;2320689;58;21124;-79
2021/12/26 01:05:29;;;;;;;23.48;13.77;;;;;;;;;;2320460;58;21072;-79
2021/12/26 01:07:58;;;;;;;25.33;12.13;;;;;;;;;;2320725;58;21626;-77
2021/12/26 01:10:26;;;;;;;29.15;12.37;;;;;;;;;;2561745;53;21040;-79
2021/12/26 01:12:55;;;;;;;24.45;12.65;;;;;;;;;;2320744;58;21103;-79
2021/12/26 01:15:23;;;;;;;20.67;12.00;;;;;;;;;;2320790;58;21290;-79
2021/12/26 01:17:55;;;;;;;24.30;10.63;;;;;;;;;;2320737;58;21052;-80
2021/12/26 01:20:41;;;;;;;25.48;12.75;;;;;;;;;;2557190;53;21055;-79
2021/12/26 01:23:08;;;;;;;22.73;11.55;;;;;;;;;;2320555;58;21187;-78
2021/12/26 01:25:35;;;;;;;26.73;12.00;;;;;;;;;;2320760;58;21063;-79
2021/12/26 01:28:03;;;;;;;25.10;11.48;;;;;;;;;;2312553;58;21052;-78
2021/12/26 01:30:30;;;;;;;20.42;11.15;;;;;;;;;;2320751;58;21152;-79
2021/12/26 01:32:57;;;;;;;19.77;11.15;;;;;;;;;;2561882;54;21056;-80
2021/12/26 01:35:24;;;;;;;27.00;13.02;;;;;;;;;;2561743;54;21052;-79
2021/12/26 01:37:51;;;;;;;24.00;11.05;;;;;;;;;;2320652;58;21191;-79
2021/12/26 01:40:19;;;;;;;19.80;10.43;;;;;;;;;;2320307;58;21622;-78
2021/12/26 01:42:46;;;;;;;21.83;10.60;;;;;;;;;;2561731;54;21602;-79
2021/12/26 01:45:13;;;;;;;20.30;11.38;;;;;;;;;;2561480;54;21056;-79
2021/12/26 01:47:40;;;;;;;19.62;10.98;;;;;;;;;;2321104;58;21626;-79
2021/12/26 01:50:08;;;;;;;18.42;10.23;;;;;;;;;;2561125;53;21056;-78
2021/12/26 01:52:35;;;;;;;20.40;11.07;;;;;;;;;;2320950;58;21119;-78
2021/12/26 01:55:21;;;;;;;21.30;10.98;;;;;;;;;;2320739;58;21526;-79
2021/12/26 01:57:49;;;;;;;19.20;10.60;;;;;;;;;;2289584;58;21040;-80
2021/12/26 02:00:16;;;;;;;20.02;10.52;;;;;;;;;;2561067;53;21042;-78
2021/12/26 02:02:43;;;;;;;16.40;10.10;;;;;;;;;;2561562;54;21053;-78
2021/12/26 02:05:10;;;;;;;17.70;10.57;;;;;;;;;;2320604;58;21063;-79
2021/12/26 02:07:37;;;;;;;14.52;9.07;;;;;;;;;;2310602;58;21052;-79
2021/12/26 02:10:06;;;;;;;23.52;11.32;;;;;;;;;;2561566;53;21048;-78
2021/12/26 02:12:33;;;;;;;22.10;10.60;;;;;;;;;;2321008;58;21103;-80
2021/12/26 02:15:00;;;;;;;19.55;11.38;;;;;;;;;;2320831;58;21732;-78
2021/12/26 02:17:28;;;;;;;15.73;9.80;;;;;;;;;;2321069;58;21072;-79
2021/12/26 02:20:13;;;;;;;18.25;9.05;;;;;;;;;;2561913;53;21056;-78
2021/12/26 02:22:45;;;;;;;21.00;9.18;;;;;;;;;;2562262;54;21052;-79
2021/12/26 02:25:26;;;;;;;20.15;10.30;;;;;;;;;;2320540;58;21108;-79
2021/12/26 02:27:54;;;;;;;16.00;9.80;;;;;;;;;;2321215;58;21067;-78
2021/12/26 02:30:22;;;;;;;16.62;9.57;;;;;;;;;;2561411;53;21116;-78
2021/12/26 02:32:50;;;;;;;16.37;9.40;;;;;;;;;;2321122;58;21036;-79
2021/12/26 02:35:18;;;;;;;14.52;8.20;;;;;;;;;;2561746;54;21063;-78
2021/12/26 02:37:45;;;;;;;13.80;7.75;;;;;;;;;;2306621;58;21055;-79
2021/12/26 02:40:13;;;;;;;16.25;8.93;;;;;;;;;;2561704;53;21102;-79
2021/12/26 02:42:41;;;;;;;13.95;8.43;;;;;;;;;;2320884;58;21064;-79
2021/12/26 02:45:08;;;;;;;17.02;8.88;;;;;;;;;;2561903;54;21048;-80
2021/12/26 02:47:36;;;;;;;20.42;9.77;;;;;;;;;;2320921;58;21056;-79
2021/12/26 02:50:06;;;;;;;20.85;10.15;;;;;;;;;;2321163;57;21617;-78
2021/12/26 02:52:33;;;;;;;17.65;9.93;;;;;;;;;;2320776;58;21064;-78
2021/12/26 02:55:01;;;;;;;17.33;9.73;;;;;;;;;;2320960;58;21037;-79
2021/12/26 02:57:28;;;;;;;18.12;10.80;;;;;;;;;;2321317;58;21614;-80
2021/12/26 02:59:55;;;;;;;13.48;9.63;;;;;;;;;;2320472;58;21128;-79
2021/12/26 03:02:22;;;;;;;16.30;8.98;;;;;;;;;;2321235;58;21049;-80
2021/12/26 03:04:49;;;;;;;16.92;8.55;;;;;;;;;;2321327;58;21056;-79
2021/12/26 03:07:16;;;;;;;13.30;9.30;;;;;;;;;;2321180;58;21103;-79
2021/12/26 03:09:46;;;;;;;15.35;8.93;;;;;;;;;;2320872;58;21056;-80
2021/12/26 03:12:13;;;;;;;20.15;9.25;;;;;;;;;;2321285;58;21056;-80
2021/12/26 03:14:40;;;;;;;16.35;9.15;;;;;;;;;;2561820;54;21071;-78
2021/12/26 03:17:08;;;;;;;16.00;9.18;;;;;;;;;;2320967;58;21116;-80
2021/12/26 03:19:35;;;;;;;17.75;9.60;;;;;;;;;;2321018;58;21127;-79
2021/12/26 03:22:02;;;;;;;14.85;7.70;;;;;;;;;;2320964;58;21641;-78
2021/12/26 03:24:30;;;;;;;16.55;8.45;;;;;;;;;;2562006;54;21586;-80
2021/12/26 03:26:59;;;;;;;15.57;8.63;;;;;;;;;;2321023;58;21048;-78
2021/12/26 03:29:26;;;;;;;18.17;9.10;;;;;;;;;;2561482;53;21127;-79
2021/12/26 03:31:53;;;;;;;12.95;7.68;;;;;;;;;;2321034;58;21087;-79
2021/12/26 03:34:20;;;;;;;15.50;8.25;;;;;;;;;;2320701;58;21044;-79
2021/12/26 03:36:51;;;;;;;13.82;8.18;;;;;;;;;;2320040;58;21583;-78
2021/12/26 03:39:19;;;;;;;14.20;7.95;;;;;;;;;;2320205;58;21052;-79
2021/12/26 03:41:46;;;;;;;15.05;7.65;;;;;;;;;;2561838;54;21064;-77
2021/12/26 03:44:14;;;;;;;15.07;8.25;;;;;;;;;;2320448;58;21048;-79
2021/12/26 03:46:41;;;;;;;19.70;8.10;;;;;;;;;;2319837;58;21558;-79
2021/12/26 03:49:08;;;;;;;17.17;8.45;;;;;;;;;;2319961;58;21689;-76
2021/12/26 03:51:35;;;;;;;13.18;7.82;;;;;;;;;;2320181;58;21048;-78
2021/12/26 03:54:04;;;;;;;15.15;7.80;;;;;;;;;;2320332;58;21103;-78
2021/12/26 03:56:31;;;;;;;15.20;7.78;;;;;;;;;;2320051;58;21052;-78
2021/12/26 03:58:58;;;;;;;15.00;8.82;;;;;;;;;;2320280;58;21112;-78
2021/12/26 04:01:25;;;;;;;13.90;8.15;;;;;;;;;;2561387;54;21139;-78
2021/12/26 04:03:52;;;;;;;14.13;7.40;;;;;;;;;;2320294;58;21131;-79
2021/12/26 04:06:19;;;;;;;14.68;7.18;;;;;;;;;;2561565;54;21558;-79
2021/12/26 04:08:47;;;;;;;12.70;6.62;;;;;;;;;;2320132;58;21043;-78
2021/12/26 04:11:14;;;;;;;11.23;6.68;;;;;;;;;;2561424;54;21543;-78
2021/12/26 04:13:41;;;;;;;15.88;7.53;;;;;;;;;;2320297;58;21156;-78
2021/12/26 04:16:08;;;;;;;10.73;6.65;;;;;;;;;;2320570;58;21084;-77
2021/12/26 04:18:35;;;;;;;12.90;5.97;;;;;;;;;;2561503;53;21064;-78
2021/12/26 04:21:02;;;;;;;12.13;6.90;;;;;;;;;;2320160;58;21064;-78
2021/12/26 04:23:30;;;;;;;11.98;7.62;;;;;;;;;;2320354;58;21059;-78
2021/12/26 04:25:57;;;;;;;13.40;7.85;;;;;;;;;;2320445;58;21056;-78
2021/12/26 04:28:24;;;;;;;11.32;7.90;;;;;;;;;;2320416;58;21048;-79
2021/12/26 04:30:51;;;;;;;16.90;8.23;;;;;;;;;;2320246;58;21112;-79
2021/12/26 04:33:18;;;;;;;16.67;8.88;;;;;;;;;;2320188;58;21591;-80
2021/12/26 04:35:45;;;;;;;13.90;8.25;;;;;;;;;;2561676;54;21105;-78
2021/12/26 04:38:12;;;;;;;16.48;9.13;;;;;;;;;;2561579;53;21064;-79
2021/12/26 04:40:40;;;;;;;13.02;7.95;;;;;;;;;;2320120;58;21240;-78
2021/12/26 04:43:07;;;;;;;15.02;8.57;;;;;;;;;;2320627;58;21108;-79
2021/12/26 04:45:34;;;;;;;16.83;8.45;;;;;;;;;;2320150;58;21056;-78
2021/12/26 04:48:02;;;;;;;12.52;7.80;;;;;;;;;;2320484;58;21221;-78
2021/12/26 04:50:29;;;;;;;19.12;8.65;;;;;;;;;;2320526;58;21112;-79
2021/12/26 04:52:57;;;;;;;17.55;8.00;;;;;;;;;;2561041;54;21547;-79
2021/12/26 04:55:25;;;;;;;12.05;7.18;;;;;;;;;;2320445;58;21171;-78
2021/12/26 04:57:52;;;;;;;13.50;8.18;;;;;;;;;;2320493;58;21067;-78
2021/12/26 05:00:21;;;;;;;13.15;7.28;;;;;;;;;;2320353;58;21063;-78
2021/12/26 05:02:49;;;;;;;15.52;7.62;;;;;;;;;;2320599;58;21681;-79
2021/12/26 05:05:16;;;;;;;12.57;7.70;;;;;;;;;;2320650;58;21120;-79
2021/12/26 05:07:43;;;;;;;16.83;7.57;;;;;;;;;;2320795;58;21722;-78
2021/12/26 05:10:12;;;;;;;13.68;7.70;;;;;;;;;;2320426;58;21036;-79
2021/12/26 05:12:40;;;;;;;13.43;6.93;;;;;;;;;;2301364;54;21150;-75
2021/12/26 05:15:08;;;;;;;9.60;6.15;;;;;;;;;;2293040;58;21062;-75
2021/12/26 05:17:35;;;;;;;12.43;7.43;;;;;;;;;;2293374;58;21055;-75
2021/12/26 05:20:02;;;;;;;13.57;7.70;;;;;;;;;;2314289;58;21245;-75
2021/12/26 05:22:29;;;;;;;13.35;7.93;;;;;;;;;;2319630;58;21488;-75
2021/12/26 05:24:56;;;;;;;14.75;7.60;;;;;;;;;;2319576;58;21059;-75
2021/12/26 05:27:23;;;;;;;13.85;6.70;;;;;;;;;;2317580;58;21139;-75
2021/12/26 05:29:50;;;;;;;11.90;6.12;;;;;;;;;;2361195;54;21128;-75
2021/12/26 05:32:18;;;;;;;10.57;5.82;;;;;;;;;;2318220;58;21732;-75
2021/12/26 05:34:45;;;;;;;9.93;5.90;;;;;;;;;;2318433;58;21119;-75
2021/12/26 05:37:12;;;;;;;9.35;5.53;;;;;;;;;;2318332;58;21074;-75
2021/12/26 05:39:39;;;;;;;12.07;6.15;;;;;;;;;;2317713;58;21122;-75
2021/12/26 05:42:07;;;;;;;11.60;6.50;;;;;;;;;;2318161;58;21072;-75
2021/12/26 05:44:34;;;;;;;12.27;6.55;;;;;;;;;;2367919;54;21120;-76
2021/12/26 05:47:01;;;;;;;9.70;5.95;;;;;;;;;;2318178;58;21131;-75
2021/12/26 05:49:28;;;;;;;11.25;6.03;;;;;;;;;;2317331;58;21527;-75
2021/12/26 05:51:55;;;;;;;9.52;5.80;;;;;;;;;;2318435;58;21048;-75
2021/12/26 05:54:22;;;;;;;13.88;6.20;;;;;;;;;;2318164;58;21150;-75
2021/12/26 05:56:49;;;;;;;8.88;5.07;;;;;;;;;;2396299;54;21076;-75
2021/12/26 05:59:16;;;;;;;9.10;5.40;;;;;;;;;;2317690;58;21488;-75
2021/12/26 06:01:43;;;;;;;10.38;6.10;;;;;;;;;;2318454;58;21084;-75
2021/12/26 06:04:10;;;;;;;12.48;5.72;;;;;;;;;;2318323;58;21044;-75
2021/12/26 06:06:37;;;;;;;12.85;5.87;;;;;;;;;;2318450;58;21123;-75
2021/12/26 06:09:04;;;;;;;14.55;6.53;;;;;;;;;;2318305;58;21123;-75
2021/12/26 06:11:31;;;;;;;13.85;5.70;;;;;;;;;;2318304;58;21621;-75
2021/12/26 06:13:58;;;;;;;10.02;5.93;;;;;;;;;;2318522;58;21060;-75
2021/12/26 06:16:25;;;;;;;9.38;5.68;;;;;;;;;;2318199;58;21155;-74
2021/12/26 06:18:52;;;;;;;12.60;6.53;;;;;;;;;;2318042;58;21044;-76
2021/12/26 06:21:19;;;;;;;10.88;6.53;;;;;;;;;;2318194;58;21610;-76
2021/12/26 06:23:50;;;;;;;13.38;6.65;;;;;;;;;;2318212;58;21056;-75
2021/12/26 06:26:17;;;;;;;9.35;5.90;;;;;;;;;;2318603;58;21194;-75
2021/12/26 06:28:44;;;;;;;11.77;6.47;;;;;;;;;;2340332;54;21554;-75
2021/12/26 06:31:11;;;;;;;10.95;5.82;;;;;;;;;;2318295;58;21121;-75
2021/12/26 06:33:38;;;;;;;12.05;6.93;;;;;;;;;;2318197;58;21133;-75
2021/12/26 06:36:06;;;;;;;11.77;6.65;;;;;;;;;;2351937;54;21096;-75
2021/12/26 06:38:34;;;;;;;13.18;7.00;;;;;;;;;;2318139;58;21213;-75
2021/12/26 06:41:01;;;;;;;18.83;6.57;;;;;;;;;;2319057;58;21209;-75
2021/12/26 06:43:28;;;;;;;15.80;6.37;;;;;;;;;;2319225;58;21108;-75
2021/12/26 06:45:55;;;;;;;9.40;6.60;;;;;;;;;;2319438;58;21140;-75
2021/12/26 06:48:22;;;;;;;11.23;6.47;;;;;;;;;;2341252;54;21610;-75
2021/12/26 06:50:50;;;;;;;16.15;6.25;;;;;;;;;;2318422;58;21048;-75
2021/12/26 06:53:17;;;;;;;13.10;7.65;;;;;;;;;;2319015;58;21049;-76
2021/12/26 06:55:44;;;;;;;11.43;7.28;;;;;;;;;;2319031;58;21053;-74
2021/12/26 06:58:12;;;;;;;12.15;6.07;;;;;;;;;;2318191;58;21543;-75
2021/12/26 07:00:40;;;;;;;15.55;7.12;;;;;;;;;;2318950;58;21068;-75
2021/12/26 07:03:07;;;;;;;15.70;7.70;;;;;;;;;;2318453;58;21119;-75
2021/12/26 07:05:34;;;;;;;10.25;6.60;;;;;;;;;;2319255;58;21052;-75
2021/12/26 07:08:01;;;;;;;15.00;7.78;;;;;;;;;;2319342;58;21064;-75
2021/12/26 07:10:28;;;;;;;9.50;6.22;;;;;;;;;;2318683;58;21080;-75
2021/12/26 07:12:55;;;;;;;12.68;6.90;;;;;;;;;;2319013;58;21104;-75
2021/12/26 07:15:22;;;;;;;12.18;6.87;;;;;;;;;;2318040;58;21104;-74
2021/12/26 07:17:49;;;;;;;11.52;6.60;;;;;;;;;;2316783;58;21071;-74
2021/12/26 07:20:17;;;;;;;12.37;7.35;;;;;;;;;;2317136;58;21044;-74
2021/12/26 07:22:46;;;;;;;11.48;6.40;;;;;;;;;;2319005;58;21052;-75
2021/12/26 07:25:13;;;;;;;9.52;6.15;;;;;;;;;;2319064;58;21191;-74
2021/12/26 07:27:41;;;;;;;14.05;6.87;;;;;;;;;;2318955;58;21048;-75
2021/12/26 07:30:10;;;;;;;8.65;5.37;;;;;;;;;;2322105;54;21083;-75
2021/12/26 07:32:37;;;;;;;7.03;4.57;;;;;;;;;;2319134;58;21060;-75
2021/12/26 07:35:04;;;;;;;10.05;5.37;;;;;;;;;;2324533;54;21084;-75
2021/12/26 07:37:31;;;;;;;10.15;5.78;;;;;;;;;;2319354;58;21056;-74
2021/12/26 07:39:58;;;;;;;10.15;5.07;;;;;;;;;;2318709;58;21047;-75
2021/12/26 07:42:25;;;;;;;14.65;5.82;;;;;;;;;;2319235;58;21056;-74
2021/12/26 07:44:52;;;;;;;10.20;5.90;;;;;;;;;;2351408;54;21147;-75
2021/12/26 07:47:19;;;;;;;8.10;5.22;;;;;;;;;;2319555;58;21112;-75
2021/12/26 07:49:46;;;;;;;10.20;5.95;;;;;;;;;;2319274;58;21047;-75
2021/12/26 07:52:17;;;;;;;10.18;5.47;;;;;;;;;;2319628;58;21068;-75
2021/12/26 07:54:45;;;;;;;16.15;6.03;;;;;;;;;;2319486;58;21535;-75
2021/12/26 07:57:12;;;;;;;9.95;5.95;;;;;;;;;;2319430;58;21044;-75
2021/12/26 07:59:39;;;;;;;14.50;6.05;;;;;;;;;;2397964;54;21527;-75
2021/12/26 08:02:07;;;;;;;10.85;6.15;;;;;;;;;;2319401;58;21064;-75
2021/12/26 08:04:34;;;;;;;10.15;5.72;;;;;;;;;;2319463;58;21143;-75
2021/12/26 08:07:01;;;;;;;11.95;6.28;;;;;;;;;;2319756;58;21132;-75
2021/12/26 08:09:28;;;;;;;15.55;6.82;;;;;;;;;;2319102;55;21391;-75
2021/12/26 08:11:55;;;;;;;11.77;7.18;;;;;;;;;;2319413;58;21072;-75
2021/12/26 08:14:22;;;;;;;19.35;8.57;;;;;;;;;;2319317;58;21056;-75
2021/12/26 08:16:49;;;;;;;26.05;10.95;;;;;;;;;;2380785;54;21115;-75
2021/12/26 08:19:16;;;;;;;18.58;8.45;;;;;;;;;;2319432;58;21163;-75
2021/12/26 08:21:44;;;;;;;21.17;8.52;;;;;;;;;;2319240;58;21064;-74
2021/12/26 08:24:11;;;;;;;12.75;7.22;;;;;;;;;;2357774;54;21174;-76
2021/12/26 08:26:38;;;;;;;18.00;8.60;;;;;;;;;;2319859;58;21119;-74
2021/12/26 08:29:05;;;;;;;12.30;7.43;;;;;;;;;;2319458;58;21112;-75
2021/12/26 08:31:32;;;;;;;13.77;6.97;;;;;;;;;;2319656;58;21207;-75
2021/12/26 08:33:59;;;;;;;11.43;6.03;;;;;;;;;;2320116;58;21586;-74
2021/12/26 08:36:26;;;;;;;14.25;6.75;;;;;;;;;;2319823;58;21135;-73
2021/12/26 08:38:53;;;;;;;13.60;6.47;;;;;;;;;;2318371;58;21048;-74
2021/12/26 08:41:22;;;;;;;13.82;6.82;;;;;;;;;;2319472;58;21048;-74
2021/12/26 08:43:49;;;;;;;10.23;5.70;;;;;;;;;;2319689;58;21048;-74
2021/12/26 08:46:16;;;;;;;13.43;6.80;;;;;;;;;;2319852;58;21072;-75
2021/12/26 08:48:43;;;;;;;8.90;5.12;;;;;;;;;;2318789;58;21064;-73
2021/12/26 08:51:10;;;;;;;11.18;6.12;;;;;;;;;;2458517;54;21042;-76
2021/12/26 08:53:37;;;;;;;11.55;5.45;;;;;;;;;;2324638;54;21210;-74
2021/12/26 08:56:05;;;;;;;10.68;5.60;;;;;;;;;;2318888;58;21040;-75
2021/12/26 08:58:32;;;;;;;11.70;6.45;;;;;;;;;;2319389;58;21052;-75
2021/12/26 09:00:59;;;;;;;15.63;6.57;;;;;;;;;;2319240;58;21060;-76
2021/12/26 09:03:26;;;;;;;11.25;5.82;;;;;;;;;;2319123;58;21052;-76
2021/12/26 09:05:53;;;;;;;9.35;5.55;;;;;;;;;;2319533;55;21128;-76
2021/12/26 09:08:21;;;;;;;17.58;6.15;;;;;;;;;;2377497;54;21191;-75
2021/12/26 09:10:48;;;;;;;12.37;5.43;;;;;;;;;;2319215;58;21068;-75
2021/12/26 09:13:15;;;;;;;6.97;4.90;;;;;;;;;;2319374;58;21044;-75
2021/12/26 09:15:42;;;;;;;8.55;5.28;;;;;;;;;;2319281;58;21059;-75
2021/12/26 09:18:09;;;;;;;10.75;6.37;;;;;;;;;;2319242;58;21542;-74
2021/12/26 09:20:37;;;;;;;9.32;4.60;;;;;;;;;;2319413;58;21123;-76
2021/12/26 09:23:04;;;;;;;9.85;4.68;;;;;;;;;;2339145;54;21119;-74
2021/12/26 09:25:31;;;;;;;8.05;4.37;;;;;;;;;;2319345;58;21076;-75
2021/12/26 09:27:58;;;;;;;8.55;4.40;;;;;;;;;;2319315;58;21052;-76
2021/12/26 09:30:25;;;;;;;8.98;5.45;;;;;;;;;;2318785;58;21127;-75
2021/12/26 09:32:52;;;;;;;9.43;4.32;;;;;;;;;;2319196;58;21045;-75
2021/12/26 09:35:19;;;;;;;7.35;4.43;;;;;;;;;;2319344;58;21138;-76
2021/12/26 09:37:46;;;;;;;7.32;4.32;;;;;;;;;;2319608;58;21713;-79
2021/12/26 09:40:15;;;;;;;4.53;3.15;;;;;;;;;;2318538;58;22316;-76
2021/12/26 09:42:43;;;;;;;10.63;4.47;;;;;;;;;;2319020;58;21059;-74
2021/12/26 09:45:10;;;;;;;5.93;3.78;;;;;;;;;;2319322;58;21119;-74
2021/12/26 09:47:38;;;;;;;5.20;3.75;;;;;;;;;;2319124;58;21056;-76
2021/12/26 09:50:06;;;;;;;7.65;4.45;;;;;;;;;;2318551;58;21052;-76
2021/12/26 09:52:33;;;;;;;10.73;5.20;;;;;;;;;;2318944;58;21068;-75
2021/12/26 09:55:00;;;;;;;5.78;4.20;;;;;;;;;;2318669;58;22139;-75
2021/12/26 09:57:29;;;;;;;7.85;4.12;;;;;;;;;;2319125;58;21040;-77
2021/12/26 09:59:56;;;;;;;7.53;4.32;;;;;;;;;;2318535;58;21121;-76
2021/12/26 10:02:23;;;;;;;7.78;4.10;;;;;;;;;;2320134;54;21115;-76
2021/12/26 10:04:51;;;;;;;5.35;3.35;;;;;;;;;;2319083;58;21139;-76
2021/12/26 10:07:19;;;;;;;7.82;3.90;;;;;;;;;;2319372;58;21064;-79
2021/12/26 10:09:47;;;;;;;6.55;3.83;;;;;;;;;;2318911;58;21059;-74
2021/12/26 10:12:15;;;;;;;5.90;3.97;;;;;;;;;;2318960;58;21064;-74
2021/12/26 10:14:43;;;;;;;6.35;4.40;;;;;;;;;;2319132;58;21135;-74
2021/12/26 10:17:11;;;;;;;7.80;4.03;;;;;;;;;;2319496;58;21187;-74
2021/12/26 10:19:39;;;;;;;5.85;3.70;;;;;;;;;;2463481;53;21111;-74
2021/12/26 10:22:07;;;;;;;5.40;3.72;;;;;;;;;;2318794;58;21116;-75
2021/12/26 10:24:35;;;;;;;6.70;3.92;;;;;;;;;;2319100;58;21393;-74
2021/12/26 10:27:04;;;;;;;7.28;4.15;;;;;;;;;;2319477;58;21452;-74
2021/12/26 10:29:33;;;;;;;5.30;3.97;;;;;;;;;;2318622;58;21095;-74
2021/12/26 10:32:06;;;;;;;5.57;3.67;;;;;;;;;;2319301;58;21064;-74
2021/12/26 10:34:34;;;;;;;5.55;4.20;;;;;;;;;;2319578;58;21131;-74
2021/12/26 10:37:02;;;;;;;5.45;3.08;;;;;;;;;;2318972;58;21044;-74
2021/12/26 10:39:30;;;;;;;9.13;4.68;;;;;;;;;;2318586;58;21527;-74
2021/12/26 10:41:59;;;;;;;6.35;4.85;;;;;;;;;;2319127;58;21066;-74
2021/12/26 10:44:28;;;;;;;8.73;3.92;;;;;;;;;;2319520;58;21056;-75
2021/12/26 10:46:56;;;;;;;6.80;3.58;;;;;;;;;;2365416;54;21531;-74
2021/12/26 10:49:43;;;;;;;7.45;4.18;;;;;;;;;;2353465;54;21187;-73
2021/12/26 10:52:12;;;;;;;8.93;3.83;;;;;;;;;;2318870;58;21051;-73
2021/12/26 10:54:41;;;;;;;4.57;3.28;;;;;;;;;;2321749;54;21641;-73
2021/12/26 10:57:13;;;;;;;5.12;3.58;;;;;;;;;;2319651;58;21045;-72
2021/12/26 10:59:41;;;;;;;5.87;3.75;;;;;;;;;;2319327;57;21060;-72
2021/12/26 11:02:09;;;;;;;6.78;3.58;;;;;;;;;;2319206;58;21063;-72
2021/12/26 11:04:37;;;;;;;5.15;3.65;;;;;;;;;;2319053;58;21048;-72
2021/12/26 11:07:05;;;;;;;4.93;3.53;;;;;;;;;;2356467;54;21541;-72
2021/12/26 11:09:32;;;;;;;4.70;3.30;;;;;;;;;;2318935;58;21562;-72
2021/12/26 11:12:00;;;;;;;4.40;3.33;;;;;;;;;;2311873;54;72119;-77
2021/12/26 11:14:27;;;;;;;6.00;3.33;;;;;;;;;;2305401;58;21116;-77
2021/12/26 11:16:54;;;;;;;5.15;3.28;;;;;;;;;;2543354;54;21072;-77
2021/12/26 11:19:39;;;;;;;5.72;3.33;;;;;;;;;;2305340;58;21127;-77
2021/12/26 11:22:06;;;;;;;5.15;2.90;;;;;;;;;;2313516;57;21196;-76
2021/12/26 11:24:34;;;;;;;5.18;3.08;;;;;;;;;;2572697;53;21062;-76
2021/12/26 11:27:02;;;;;;;4.78;3.10;;;;;;;;;;2329783;57;21332;-76
2021/12/26 11:29:29;;;;;;;4.32;3.03;;;;;;;;;;2328926;57;21626;-77
2021/12/26 11:31:57;;;;;;;4.12;3.08;;;;;;;;;;2329824;57;21109;-77
2021/12/26 11:34:24;;;;;;;7.40;3.12;;;;;;;;;;2330034;57;21066;-77
2021/12/26 11:36:51;;;;;;;9.18;3.30;;;;;;;;;;2330644;57;21066;-76
2021/12/26 11:39:18;;;;;;;4.82;2.85;;;;;;;;;;2331523;57;21050;-76
2021/12/26 11:41:52;;;;;;;4.95;2.83;;;;;;;;;;2575350;54;21120;-76
2021/12/26 11:44:30;;;;;;;4.37;2.78;;;;;;;;;;2331436;57;21163;-77
2021/12/26 11:47:07;;;;;;;3.65;2.90;;;;;;;;;;2331517;57;21121;-77
2021/12/26 11:49:44;;;;;;;3.15;2.70;;;;;;;;;;2331271;57;21165;-76
2021/12/26 11:52:22;;;;;;;6.82;3.28;;;;;;;;;;2330776;57;21203;-76
2021/12/26 11:54:54;;;;;;;5.10;3.15;;;;;;;;;;2574856;54;21038;-77
2021/12/26 11:57:41;;;;;;;5.10;3.33;;;;;;;;;;2574907;54;21212;-77
2021/12/26 12:00:10;;;;;;;6.35;3.25;;;;;;;;;;2330781;57;21069;-78
2021/12/26 12:02:40;;;;;;;5.12;2.87;;;;;;;;;;2330876;57;21582;-78
2021/12/26 12:05:08;;;;;;;6.68;3.03;;;;;;;;;;2574682;54;21055;-77
2021/12/26 12:07:44;;;;;;;4.28;2.60;;;;;;;;;;2330743;57;21117;-77
2021/12/26 12:10:30;;;;;;;2.67;2.33;;;;;;;;;;2331870;57;21161;-78
2021/12/26 12:12:57;;;;;;;4.40;2.62;;;;;;;;;;2331987;57;21062;-77
2021/12/26 12:15:40;;;;;;;3.05;2.35;;;;;;;;;;2576255;54;21078;-77
2021/12/26 12:18:09;;;;;;;4.50;2.70;;;;;;;;;;2576122;54;21042;-78
2021/12/26 12:20:37;;;;;;;4.10;3.30;;;;;;;;;;2332176;57;21118;-77
2021/12/26 12:23:18;;;;;;;5.50;2.90;;;;;;;;;;2332189;57;21535;-77
2021/12/26 12:25:49;;;;;;;5.00;3.22;;;;;;;;;;2576217;54;22116;-77
2021/12/26 12:28:18;;;;;;;4.20;2.80;;;;;;;;;;2332369;57;21062;-77
2021/12/26 12:30:46;;;;;;;4.28;2.72;;;;;;;;;;2331991;57;21053;-77
2021/12/26 12:33:14;;;;;;;4.05;2.60;;;;;;;;;;2332138;57;21054;-77
2021/12/26 12:35:52;;;;;;;4.80;2.90;;;;;;;;;;2332154;57;21050;-77
2021/12/26 12:38:23;;;;;;;3.97;2.75;;;;;;;;;;2332087;57;21551;-78
2021/12/26 12:40:51;;;;;;;6.05;2.90;;;;;;;;;;2575936;53;21337;-76
2021/12/26 12:43:18;;;;;;;3.65;2.65;;;;;;;;;;2332012;57;21138;-77
2021/12/26 12:46:04;;;;;;;6.90;3.15;;;;;;;;;;2332178;57;21101;-77
2021/12/26 12:48:32;;;;;;;2.83;2.53;;;;;;;;;;2331931;57;21078;-76
2021/12/26 12:51:00;;;;;;;4.07;2.62;;;;;;;;;;2575490;54;21072;-76
2021/12/26 12:53:42;;;;;;;4.20;2.83;;;;;;;;;;2332000;57;21062;-78
2021/12/26 12:56:10;;;;;;;4.95;2.72;;;;;;;;;;2332264;57;21058;-77
2021/12/26 12:58:37;;;;;;;4.72;2.85;;;;;;;;;;2331957;57;22593;-77
2021/12/26 13:01:05;;;;;;;4.03;2.62;;;;;;;;;;2331442;57;21042;-78
2021/12/26 13:03:34;;;;;;;3.50;2.60;;;;;;;;;;2331950;57;21074;-77
2021/12/26 13:06:06;;;;;;;5.05;2.45;;;;;;;;;;2575623;54;21062;-77
2021/12/26 13:08:34;;;;;;;4.87;2.67;;;;;;;;;;2332360;57;21535;-76
2021/12/26 13:11:02;;;;;;;5.10;2.83;;;;;;;;;;2331278;57;21068;-77
2021/12/26 13:13:30;;;;;;;4.65;2.72;;;;;;;;;;2331795;57;21042;-76
2021/12/26 13:15:58;;;;;;;4.37;2.65;;;;;;;;;;2575758;54;21058;-77
2021/12/26 13:18:26;;;;;;;5.57;3.03;;;;;;;;;;2331310;57;21317;-78
2021/12/26 13:20:54;;;;;;;5.37;2.80;;;;;;;;;;2331351;57;21102;-76
2021/12/26 13:23:22;;;;;;;6.00;2.58;;;;;;;;;;2331602;57;21074;-77
2021/12/26 13:25:51;;;;;;;4.72;2.85;;;;;;;;;;2575449;54;21077;-77
2021/12/26 13:28:20;;;;;;;3.35;2.70;;;;;;;;;;2331651;57;21141;-78
2021/12/26 13:30:50;;;;;;;4.75;3.30;;;;;;;;;;2331425;57;21070;-76
2021/12/26 13:33:18;;;;;;;7.30;3.08;;;;;;;;;;2331720;57;21062;-76
2021/12/26 13:35:46;;;;;;;5.05;2.70;;;;;;;;;;2331670;57;21055;-77
2021/12/26 13:38:14;;;;;;;4.72;3.28;;;;;;;;;;2331750;57;21058;-77
2021/12/26 13:40:42;;;;;;;5.10;3.20;;;;;;;;;;2331389;57;21054;-77
2021/12/26 13:43:09;;;;;;;4.15;3.00;;;;;;;;;;2331900;57;21153;-77
2021/12/26 13:45:38;;;;;;;4.07;2.72;;;;;;;;;;2575783;54;21050;-77
2021/12/26 13:48:05;;;;;;;6.50;3.60;;;;;;;;;;2331984;57;21078;-76
2021/12/26 13:50:32;;;;;;;5.15;3.10;;;;;;;;;;2331401;57;22150;-76
2021/12/26 13:53:01;;;;;;;5.57;3.10;;;;;;;;;;2576040;54;21066;-77
2021/12/26 13:55:28;;;;;;;5.93;3.40;;;;;;;;;;2331612;57;21078;-77
2021/12/26 13:57:59;;;;;;;5.07;3.12;;;;;;;;;;2331991;57;21110;-76
2021/12/26 14:00:26;;;;;;;5.45;2.87;;;;;;;;;;2331571;57;21073;-77
2021/12/26 14:02:53;;;;;;;4.97;2.75;;;;;;;;;;2575843;54;21098;-77
2021/12/26 14:05:21;;;;;;;4.03;2.60;;;;;;;;;;2331899;57;21662;-77
2021/12/26 14:07:53;;;;;;;6.37;3.47;;;;;;;;;;2576175;54;21062;-75
2021/12/26 14:10:23;;;;;;;5.03;2.67;;;;;;;;;;2331960;57;21062;-78
2021/12/26 14:12:51;;;;;;;5.45;3.35;;;;;;;;;;2331855;57;21113;-78
2021/12/26 14:15:27;;;;;;;4.80;2.80;;;;;;;;;;2332541;57;21054;-76
2021/12/26 14:18:00;;;;;;;5.65;2.83;;;;;;;;;;2576522;53;21114;-79
2021/12/26 14:20:27;;;;;;;6.65;3.97;;;;;;;;;;2332021;57;21098;-78
2021/12/26 14:22:55;;;;;;;4.45;2.72;;;;;;;;;;2331944;57;21141;-76
2021/12/26 14:25:22;;;;;;;4.80;3.17;;;;;;;;;;2576540;54;21055;-77
2021/12/26 14:27:49;;;;;;;5.35;3.30;;;;;;;;;;2332190;57;21062;-78
2021/12/26 14:30:16;;;;;;;7.22;3.15;;;;;;;;;;2331654;57;21123;-76
2021/12/26 14:32:58;;;;;;;4.85;2.97;;;;;;;;;;2575825;53;21050;-78
2021/12/26 14:35:25;;;;;;;6.65;3.92;;;;;;;;;;2331747;57;21054;-76
2021/12/26 14:38:05;;;;;;;6.45;3.67;;;;;;;;;;2331935;57;21070;-77
2021/12/26 14:40:32;;;;;;;8.00;4.12;;;;;;;;;;2575663;53;21546;-76